createdAt,value
2023-12-23T00:01:58.856Z,94173.69
2023-12-23T00:04:28.936Z,94177.72
2023-12-23T00:06:57.370Z,94181.16
2023-12-23T00:09:25.920Z,94193.50
2023-12-23T00:11:54.507Z,94176.69
2023-12-23T00:14:23.084Z,94181.88
2023-12-23T00:16:51.691Z,94176.72
2023-12-23T00:19:20.370Z,94183.81
2023-12-23T00:21:50.409Z,94207.41
2023-12-23T00:24:19.054Z,94200.59
2023-12-23T00:26:47.601Z,94198.50
2023-12-23T00:29:16.154Z,94176.13
2023-12-23T00:31:44.696Z,94212.34
2023-12-23T00:34:13.260Z,94209.38
2023-12-23T00:36:42.223Z,94219.09
2023-12-23T00:39:12.218Z,94209.97
2023-12-23T00:41:40.686Z,94205.28
2023-12-23T00:44:10.638Z,94199.13
2023-12-23T00:46:39.221Z,94197.59
2023-12-23T00:49:07.838Z,94211.66
2023-12-23T00:51:37.168Z,94231.09
2023-12-23T00:54:05.769Z,94222.22
2023-12-23T00:56:35.712Z,94207.06
2023-12-23T00:59:04.320Z,94201.59
2023-12-23T01:01:32.881Z,94190.31
2023-12-23T01:04:01.521Z,94178.34
2023-12-23T01:06:30.197Z,94205.94
2023-12-23T01:08:58.635Z,94202.44
2023-12-23T01:11:27.216Z,94200.91
2023-12-23T01:13:57.299Z,94201.63
2023-12-23T01:16:25.944Z,94201.88
2023-12-23T01:18:54.527Z,94196.06
2023-12-23T01:21:23.030Z,94197.44
2023-12-23T01:23:52.514Z,94186.56
2023-12-23T01:26:21.112Z,94201.25
2023-12-23T01:28:49.639Z,94186.09
2023-12-23T01:31:22.342Z,94180.09
2023-12-23T01:33:51.010Z,94185.84
2023-12-23T01:36:19.554Z,94178.03
2023-12-23T01:38:48.172Z,94176.22
2023-12-23T01:41:16.714Z,94179.44
2023-12-23T01:43:45.216Z,94197.84
2023-12-23T01:46:14.597Z,94206.81
2023-12-23T01:48:47.034Z,94201.56
2023-12-23T01:51:17.211Z,94233.31
2023-12-23T01:53:46.173Z,94225.59
2023-12-23T01:56:15.003Z,94236.75
2023-12-23T01:58:44.147Z,94232.66
2023-12-23T02:01:12.913Z,94231.22
2023-12-23T02:03:42.560Z,94238.25
2023-12-23T02:06:12.648Z,94234.97
2023-12-23T02:08:41.231Z,94250.16
2023-12-23T02:11:10.340Z,94228.44
2023-12-23T02:13:50.442Z,94238.97
2023-12-23T02:16:19.253Z,94239.00
2023-12-23T02:18:48.525Z,94228.38
2023-12-23T02:21:18.681Z,94227.59
2023-12-23T02:23:50.019Z,94244.25
2023-12-23T02:26:22.093Z,94231.69
2023-12-23T02:28:53.667Z,94218.00
2023-12-23T02:31:23.309Z,94202.03
2023-12-23T02:33:52.137Z,94200.41
2023-12-23T02:36:24.423Z,94198.97
2023-12-23T02:38:52.992Z,94176.59
2023-12-23T02:41:21.547Z,94172.50
2023-12-23T02:43:50.067Z,94178.88
2023-12-23T02:46:18.573Z,94189.44
2023-12-23T02:48:47.303Z,94167.75
2023-12-23T02:51:15.922Z,94203.63
2023-12-23T02:53:45.882Z,94200.63
2023-12-23T02:56:14.450Z,94195.06
2023-12-23T02:58:43.090Z,94204.06
2023-12-23T03:01:11.625Z,94189.19
2023-12-23T03:03:40.217Z,94168.53
2023-12-23T03:06:08.949Z,94172.88
2023-12-23T03:08:37.854Z,94178.00
2023-12-23T03:11:08.019Z,94184.63
2023-12-23T03:13:36.640Z,94195.81
2023-12-23T03:16:15.785Z,94189.66
2023-12-23T03:18:44.344Z,94203.38
2023-12-23T03:21:12.882Z,94200.31
2023-12-23T03:23:41.421Z,94195.56
2023-12-23T03:26:11.406Z,94214.41
2023-12-23T03:28:39.998Z,94198.19
2023-12-23T03:31:09.201Z,94210.66
2023-12-23T03:33:37.742Z,94199.78
2023-12-23T03:36:06.762Z,94204.53
2023-12-23T03:38:35.322Z,94194.88
2023-12-23T03:41:03.930Z,94178.94
2023-12-23T03:43:33.918Z,94186.78
2023-12-23T03:46:02.469Z,94175.41
2023-12-23T03:48:31.089Z,94158.28
2023-12-23T03:50:59.613Z,94152.78
2023-12-23T03:53:28.237Z,94156.25
2023-12-23T03:55:56.722Z,94177.50
2023-12-23T03:58:25.299Z,94178.84
2023-12-23T04:00:55.584Z,94180.00
2023-12-23T04:03:26.509Z,94186.69
2023-12-23T04:05:55.310Z,94189.84
2023-12-23T04:08:23.938Z,94153.00
2023-12-23T04:10:52.675Z,94164.28
2023-12-23T04:13:21.282Z,94131.34
2023-12-23T04:15:49.772Z,94193.38
2023-12-23T04:18:20.027Z,94193.81
2023-12-23T04:20:48.774Z,94195.91
2023-12-23T04:23:17.330Z,94182.50
2023-12-23T04:25:45.958Z,94200.69
2023-12-23T04:28:14.520Z,94199.69
2023-12-23T04:30:43.086Z,94209.25
2023-12-23T04:33:12.246Z,94214.88
2023-12-23T04:35:42.378Z,94200.75
2023-12-23T04:38:10.986Z,94198.31
2023-12-23T04:40:39.660Z,94156.56
2023-12-23T04:43:08.224Z,94136.66
2023-12-23T04:45:36.910Z,94186.03
2023-12-23T04:48:05.890Z,94169.63
2023-12-23T04:50:34.523Z,94165.03
2023-12-23T04:53:05.141Z,94195.97
2023-12-23T04:55:33.688Z,94213.03
2023-12-23T04:58:02.220Z,94216.69
2023-12-23T05:00:30.761Z,94209.63
2023-12-23T05:02:59.550Z,94220.88
2023-12-23T05:05:28.171Z,94228.63
2023-12-23T05:07:56.846Z,94232.72
2023-12-23T05:10:26.876Z,94220.28
2023-12-23T05:12:55.420Z,94209.13
2023-12-23T05:15:23.932Z,94201.59
2023-12-23T05:17:52.543Z,94196.94
2023-12-23T05:20:21.233Z,94188.31
2023-12-23T05:22:50.091Z,94190.69
2023-12-23T05:25:18.798Z,94196.97
2023-12-23T05:27:48.774Z,94190.38
2023-12-23T05:30:18.230Z,94193.06
2023-12-23T05:32:47.315Z,94200.34
2023-12-23T05:35:16.128Z,94221.44
2023-12-23T05:37:45.027Z,94224.69
2023-12-23T05:40:14.460Z,94208.78
2023-12-23T05:42:42.973Z,94229.84
2023-12-23T05:45:13.230Z,94210.09
2023-12-23T05:47:41.925Z,94228.41
2023-12-23T05:50:11.621Z,94243.25
2023-12-23T05:52:40.295Z,94235.88
2023-12-23T05:55:10.382Z,94234.63
2023-12-23T05:57:38.884Z,94234.63
2023-12-23T06:00:11.732Z,94243.22
2023-12-23T06:02:43.160Z,94247.56
2023-12-23T06:05:11.851Z,94269.94
2023-12-23T06:07:40.380Z,94263.03
2023-12-23T06:10:10.218Z,94276.53
2023-12-23T06:12:38.704Z,94251.97
2023-12-23T06:15:08.169Z,94263.09
2023-12-23T06:17:36.733Z,94253.00
2023-12-23T06:20:07.690Z,94275.63
2023-12-23T06:22:36.435Z,94278.31
2023-12-23T06:25:05.701Z,94180.09
2023-12-23T06:27:34.236Z,94262.47
2023-12-23T06:30:02.810Z,94261.66
2023-12-23T06:32:31.461Z,94255.03
2023-12-23T06:35:00.089Z,94260.38
2023-12-23T06:37:30.148Z,94265.47
2023-12-23T06:40:01.190Z,94269.28
2023-12-23T06:42:29.705Z,94279.09
2023-12-23T06:44:58.237Z,94281.50
2023-12-23T06:47:26.867Z,94294.41
2023-12-23T06:49:55.478Z,94279.94
2023-12-23T06:52:24.399Z,94282.75
2023-12-23T06:54:54.369Z,94276.66
2023-12-23T06:57:22.773Z,94268.03
2023-12-23T06:59:51.286Z,94268.44
2023-12-23T07:02:19.986Z,94288.81
2023-12-23T07:04:48.762Z,94268.88
2023-12-23T07:07:17.284Z,94299.28
2023-12-23T07:09:47.175Z,94303.28
2023-12-23T07:12:19.132Z,94300.84
2023-12-23T07:14:48.258Z,94309.69
2023-12-23T07:17:20.556Z,94236.19
2023-12-23T07:19:51.179Z,94327.84
2023-12-23T07:22:19.682Z,94316.59
2023-12-23T07:24:48.281Z,94314.25
2023-12-23T07:27:18.421Z,94274.81
2023-12-23T07:29:48.028Z,94316.91
2023-12-23T07:32:16.844Z,94310.97
2023-12-23T07:34:45.425Z,94299.06
2023-12-23T07:37:14.128Z,94304.56
2023-12-23T07:39:42.686Z,94301.59
2023-12-23T07:42:10.214Z,94298.66
2023-12-23T07:44:40.208Z,94297.16
2023-12-23T07:47:10.806Z,94300.56
2023-12-23T07:49:39.671Z,94305.91
2023-12-23T07:52:09.403Z,94250.34
2023-12-23T07:54:38.013Z,94271.19
2023-12-23T07:57:07.200Z,94285.06
2023-12-23T07:59:35.949Z,94290.97
2023-12-23T08:02:06.194Z,94300.94
2023-12-23T08:04:34.736Z,94276.63
2023-12-23T08:07:03.653Z,94301.06
2023-12-23T08:09:32.197Z,94304.88
2023-12-23T08:12:00.808Z,94314.63
2023-12-23T08:14:29.343Z,94335.91
2023-12-23T08:16:57.812Z,94336.69
2023-12-23T08:19:27.906Z,94323.53
2023-12-23T08:21:56.410Z,94313.09
2023-12-23T08:24:24.958Z,94266.13
2023-12-23T08:26:53.523Z,94328.28
2023-12-23T08:29:22.119Z,94327.00
2023-12-23T08:31:50.751Z,94312.53
2023-12-23T08:34:22.339Z,94327.94
2023-12-23T08:36:52.541Z,94322.75
2023-12-23T08:39:21.283Z,94335.13
2023-12-23T08:41:49.842Z,94309.13
2023-12-23T08:44:18.995Z,94319.31
2023-12-23T08:46:47.637Z,94314.63
2023-12-23T08:49:16.337Z,94311.84
2023-12-23T08:51:45.151Z,94297.56
2023-12-23T08:54:15.147Z,94296.69
2023-12-23T08:56:43.710Z,94317.19
2023-12-23T08:59:12.305Z,94307.59
2023-12-23T09:01:41.116Z,94302.56
2023-12-23T09:04:09.728Z,94302.47
2023-12-23T09:06:38.413Z,94294.06
2023-12-23T09:09:07.031Z,94293.31
2023-12-23T09:11:43.886Z,94292.00
2023-12-23T09:14:13.566Z,94308.19
2023-12-23T09:16:42.174Z,94281.22
2023-12-23T09:19:10.900Z,94271.28
2023-12-23T09:21:39.512Z,94264.22
2023-12-23T09:24:08.293Z,94275.06
2023-12-23T09:26:38.281Z,94282.44
2023-12-23T09:29:06.897Z,94280.94
2023-12-23T09:31:35.770Z,94267.75
2023-12-23T09:34:04.445Z,94249.06
2023-12-23T09:36:33.179Z,94263.47
2023-12-23T09:39:01.721Z,94268.59
2023-12-23T09:41:30.389Z,94262.53
2023-12-23T09:44:00.689Z,94246.19
2023-12-23T09:46:29.636Z,94240.06
2023-12-23T09:48:58.287Z,94247.06
2023-12-23T09:51:29.488Z,94238.72
2023-12-23T09:54:00.688Z,94165.63
2023-12-23T09:56:30.452Z,94214.41
2023-12-23T09:59:00.414Z,94226.06
2023-12-23T10:01:29.053Z,94239.41
2023-12-23T10:03:57.525Z,94236.25
2023-12-23T10:06:26.607Z,94257.28
2023-12-23T10:08:55.329Z,94242.31
2023-12-23T10:11:25.930Z,94242.84
2023-12-23T10:13:55.046Z,94218.16
2023-12-23T10:16:25.126Z,94236.47
2023-12-23T10:18:53.785Z,94259.41
2023-12-23T10:21:22.472Z,94224.88
2023-12-23T10:23:51.064Z,94232.94
2023-12-23T10:26:19.639Z,94208.38
2023-12-23T10:28:57.022Z,94216.13
2023-12-23T10:31:32.212Z,94196.50
2023-12-23T10:34:05.039Z,94230.72
2023-12-23T10:36:34.060Z,94214.19
2023-12-23T10:39:05.094Z,94224.78
2023-12-23T10:41:46.141Z,94215.66
2023-12-23T10:44:15.403Z,94230.13
2023-12-23T10:46:47.186Z,94225.34
2023-12-23T10:49:16.851Z,94209.97
2023-12-23T10:51:46.624Z,94203.13
2023-12-23T10:54:15.888Z,94210.41
2023-12-23T10:56:46.605Z,94196.13
2023-12-23T10:59:15.297Z,94193.69
2023-12-23T11:01:48.049Z,94179.06
2023-12-23T11:04:16.612Z,94185.84
2023-12-23T11:06:48.946Z,94186.34
2023-12-23T11:09:18.933Z,94191.69
2023-12-23T11:11:48.999Z,94189.44
2023-12-23T11:14:17.638Z,94174.84
2023-12-23T11:16:47.664Z,94186.78
2023-12-23T11:19:16.290Z,94202.75
2023-12-23T11:21:44.926Z,94177.59
2023-12-23T11:24:34.890Z,94168.72
2023-12-23T11:27:03.596Z,94156.41
2023-12-23T11:29:32.154Z,94171.53
2023-12-23T11:32:17.110Z,94180.41
2023-12-23T11:34:47.615Z,94185.69
2023-12-23T11:37:16.219Z,94177.69
2023-12-23T11:39:45.872Z,94168.94
2023-12-23T11:42:15.354Z,94178.03
2023-12-23T11:44:45.576Z,94192.09
2023-12-23T11:47:14.518Z,94174.25
2023-12-23T11:49:46.444Z,94186.84
2023-12-23T11:52:15.243Z,94187.59
2023-12-23T11:54:45.619Z,94189.47
2023-12-23T11:57:14.384Z,94199.22
2023-12-23T11:59:43.702Z,94201.19
2023-12-23T12:02:12.763Z,94211.25
2023-12-23T12:04:41.902Z,94202.38
2023-12-23T12:07:12.156Z,94203.69
2023-12-23T12:09:40.876Z,94191.41
2023-12-23T12:12:09.946Z,94177.47
2023-12-23T12:14:38.474Z,94195.44
2023-12-23T12:17:10.176Z,94191.19
2023-12-23T12:19:39.083Z,94166.16
2023-12-23T12:22:08.091Z,94172.53
2023-12-23T12:24:39.165Z,94197.72
2023-12-23T12:27:07.741Z,94212.66
2023-12-23T12:29:36.333Z,94218.34
2023-12-23T12:32:05.123Z,94215.06
2023-12-23T12:34:33.627Z,94228.22
2023-12-23T12:37:03.816Z,94227.25
2023-12-23T12:39:32.683Z,94225.94
2023-12-23T12:42:02.645Z,94226.31
2023-12-23T12:44:31.260Z,94222.03
2023-12-23T12:46:59.951Z,94194.84
2023-12-23T12:49:28.489Z,94217.81
2023-12-23T12:51:57.056Z,94208.34
2023-12-23T12:54:27.146Z,94142.56
2023-12-23T12:56:55.853Z,94210.28
2023-12-23T12:59:25.871Z,94219.56
2023-12-23T13:01:55.198Z,94214.09
2023-12-23T13:04:23.792Z,94210.75
2023-12-23T13:06:52.414Z,94201.66
2023-12-23T13:09:20.906Z,94213.50
2023-12-23T13:11:49.440Z,94216.59
2023-12-23T13:14:17.980Z,94211.72
2023-12-23T13:16:47.968Z,94216.94
2023-12-23T13:19:16.638Z,94217.97
2023-12-23T13:21:45.307Z,94216.06
2023-12-23T13:24:14.745Z,94210.78
2023-12-23T13:26:43.292Z,94183.50
2023-12-23T13:29:11.896Z,94230.03
2023-12-23T13:31:40.409Z,94181.47
2023-12-23T13:34:11.955Z,94209.84
2023-12-23T13:36:41.085Z,94202.59
2023-12-23T13:39:09.848Z,94218.47
2023-12-23T13:41:38.488Z,94183.66
2023-12-23T13:44:07.558Z,94214.66
2023-12-23T13:46:36.310Z,94215.19
2023-12-23T13:49:05.036Z,94221.91
2023-12-23T13:51:35.378Z,94163.88
2023-12-23T13:54:03.957Z,94215.00
2023-12-23T13:56:32.549Z,94202.66
2023-12-23T13:59:01.203Z,94206.72
2023-12-23T14:01:29.702Z,94201.47
2023-12-23T14:03:58.159Z,94217.28
2023-12-23T14:06:26.808Z,94214.50
2023-12-23T14:08:56.856Z,94229.25
2023-12-23T14:11:25.557Z,94241.38
2023-12-23T14:13:54.214Z,94260.13
2023-12-23T14:16:22.711Z,94237.38
2023-12-23T14:18:51.321Z,94256.53
2023-12-23T14:21:19.810Z,94258.94
2023-12-23T14:23:48.819Z,94238.31
2023-12-23T14:26:18.929Z,94262.63
2023-12-23T14:28:47.523Z,94256.25
2023-12-23T14:31:16.202Z,94240.91
2023-12-23T14:33:44.877Z,94250.91
2023-12-23T14:36:13.525Z,94224.94
2023-12-23T14:38:42.245Z,94239.56
2023-12-23T14:41:11.119Z,94235.31
2023-12-23T14:43:41.026Z,94268.25
2023-12-23T14:46:10.340Z,94249.72
2023-12-23T14:48:39.240Z,94263.81
2023-12-23T14:51:07.978Z,94281.50
2023-12-23T14:53:36.658Z,94205.63
2023-12-23T14:56:05.673Z,94277.84
2023-12-23T14:58:34.270Z,94281.41
2023-12-23T15:01:04.293Z,94272.09
2023-12-23T15:03:32.783Z,94263.56
2023-12-23T15:06:02.344Z,94244.41
2023-12-23T15:08:31.067Z,94261.91
2023-12-23T15:10:59.573Z,94264.00
2023-12-23T15:13:28.215Z,94274.84
2023-12-23T15:15:56.830Z,94285.25
2023-12-23T15:18:26.775Z,94286.47
2023-12-23T15:20:55.458Z,94279.59
2023-12-23T15:23:24.099Z,94284.78
2023-12-23T15:25:52.672Z,94288.13
2023-12-23T15:28:21.381Z,94298.06
2023-12-23T15:30:56.372Z,94293.34
2023-12-23T15:33:27.088Z,94290.34
2023-12-23T15:35:56.737Z,94318.00
2023-12-23T15:38:25.362Z,94337.19
2023-12-23T15:40:53.962Z,94337.19
2023-12-23T15:43:22.564Z,94339.84
2023-12-23T15:45:51.173Z,94316.59
2023-12-23T15:48:19.965Z,94348.88
2023-12-23T15:50:50.978Z,94369.00
2023-12-23T15:53:19.863Z,94248.34
2023-12-23T15:55:48.507Z,94337.38
2023-12-23T15:58:17.160Z,94290.97
2023-12-23T16:00:45.824Z,94375.88
2023-12-23T16:03:14.530Z,94387.28
2023-12-23T16:05:43.141Z,94367.25
2023-12-23T16:08:13.104Z,94374.72
2023-12-23T16:10:41.742Z,94336.09
2023-12-23T16:13:13.795Z,94380.72
2023-12-23T16:15:42.389Z,94355.81
2023-12-23T16:18:11.117Z,94309.25
2023-12-23T16:20:39.819Z,94362.22
2023-12-23T16:23:08.456Z,94322.28
2023-12-23T16:25:38.474Z,94388.09
2023-12-23T16:28:07.306Z,94394.38
2023-12-23T16:30:36.822Z,94380.28
2023-12-23T16:33:05.666Z,94405.38
2023-12-23T16:35:34.364Z,94400.94
2023-12-23T16:38:03.188Z,94393.16
2023-12-23T16:40:31.921Z,94398.47
2023-12-23T16:43:01.866Z,94379.47
2023-12-23T16:45:30.619Z,94310.69
2023-12-23T16:47:59.423Z,94360.28
2023-12-23T16:50:27.963Z,94285.47
2023-12-23T16:52:56.840Z,94386.03
2023-12-23T16:55:25.559Z,94397.59
2023-12-23T16:57:54.197Z,94346.19
2023-12-23T17:00:25.182Z,94426.94
2023-12-23T17:02:54.082Z,94428.78
2023-12-23T17:05:22.875Z,94418.56
2023-12-23T17:07:51.660Z,94381.25
2023-12-23T17:10:20.401Z,94420.06
2023-12-23T17:12:49.333Z,94428.44
2023-12-23T17:15:18.171Z,94428.66
2023-12-23T17:17:48.231Z,94425.97
2023-12-23T17:20:17.005Z,94426.16
2023-12-23T17:22:45.620Z,94436.38
2023-12-23T17:25:14.197Z,94449.28
2023-12-23T17:27:42.854Z,94450.75
2023-12-23T17:30:11.913Z,94435.81
2023-12-23T17:32:40.699Z,94423.16
2023-12-23T17:35:11.882Z,94444.09
2023-12-23T17:37:40.503Z,94440.66
2023-12-23T17:40:10.287Z,94432.16
2023-12-23T17:42:38.917Z,94433.69
2023-12-23T17:45:08.401Z,94448.97
2023-12-23T17:47:37.385Z,94441.72
2023-12-23T17:50:06.985Z,94423.06
2023-12-23T17:52:36.995Z,94348.00
2023-12-23T17:55:06.263Z,94389.00
2023-12-23T17:57:34.863Z,94376.16
2023-12-23T18:00:03.513Z,94395.75
2023-12-23T18:02:33.151Z,94412.19
2023-12-23T18:05:02.078Z,94408.06
2023-12-23T18:07:33.517Z,94413.38
2023-12-23T18:10:04.653Z,94373.69
2023-12-23T18:12:34.388Z,94423.44
2023-12-23T18:15:03.085Z,94444.63
2023-12-23T18:17:32.042Z,94439.47
2023-12-23T18:20:00.788Z,94446.78
2023-12-23T18:22:29.332Z,94438.03
2023-12-23T18:24:58.059Z,94446.66
2023-12-23T18:27:27.990Z,94473.63
2023-12-23T18:29:56.479Z,94462.28
2023-12-23T18:32:25.114Z,94462.19
2023-12-23T18:34:53.770Z,94469.44
2023-12-23T18:37:22.341Z,94467.81
2023-12-23T18:39:50.846Z,94467.44
2023-12-23T18:42:19.383Z,94475.28
2023-12-23T18:44:49.433Z,94462.66
2023-12-23T18:47:17.989Z,94456.84
2023-12-23T18:49:47.266Z,94486.28
2023-12-23T18:52:15.807Z,94495.78
2023-12-23T18:54:44.275Z,94488.16
2023-12-23T18:57:12.896Z,94436.25
2023-12-23T18:59:41.521Z,94482.38
2023-12-23T19:02:12.905Z,94495.03
2023-12-23T19:04:41.595Z,94480.00
2023-12-23T19:07:10.373Z,94472.97
2023-12-23T19:09:38.886Z,94503.91
2023-12-23T19:12:07.623Z,94493.38
2023-12-23T19:14:36.221Z,94507.66
2023-12-23T19:17:05.042Z,94508.03
2023-12-23T19:19:35.077Z,94478.06
2023-12-23T19:22:03.735Z,94493.66
2023-12-23T19:24:32.257Z,94502.81
2023-12-23T19:27:00.945Z,94476.41
2023-12-23T19:29:29.553Z,94481.78
2023-12-23T19:31:58.265Z,94492.06
2023-12-23T19:34:26.907Z,94484.72
2023-12-23T19:36:56.928Z,94484.63
2023-12-23T19:39:25.438Z,94474.91
2023-12-23T19:41:54.549Z,94469.84
2023-12-23T19:44:25.743Z,94474.66
2023-12-23T19:46:54.362Z,94467.50
2023-12-23T19:49:22.845Z,94458.53
2023-12-23T19:51:51.465Z,94452.44
2023-12-23T19:54:21.433Z,94454.56
2023-12-23T19:56:50.792Z,94462.50
2023-12-23T19:59:19.553Z,94466.66
2023-12-23T20:01:48.991Z,94475.50
2023-12-23T20:04:17.562Z,94459.19
2023-12-23T20:06:46.193Z,94471.75
2023-12-23T20:09:16.415Z,94488.06
2023-12-23T20:11:46.329Z,94464.19
2023-12-23T20:14:14.826Z,94501.56
2023-12-23T20:16:43.488Z,94498.41
2023-12-23T20:19:14.009Z,94440.47
2023-12-23T20:21:42.669Z,94502.88
2023-12-23T20:24:12.122Z,94501.53
2023-12-23T20:26:40.685Z,94496.56
2023-12-23T20:29:10.655Z,94510.75
2023-12-23T20:31:39.416Z,94498.16
2023-12-23T20:34:08.367Z,94481.28
2023-12-23T20:36:40.160Z,94489.69
2023-12-23T20:39:08.866Z,94493.63
2023-12-23T20:41:40.540Z,94493.38
2023-12-23T20:44:13.990Z,94500.72
2023-12-23T20:46:42.572Z,94521.25
2023-12-23T20:49:11.804Z,94534.19
2023-12-23T20:51:41.313Z,94519.94
2023-12-23T20:54:09.912Z,94504.94
2023-12-23T20:56:38.447Z,94507.34
2023-12-23T20:59:08.023Z,94499.72
2023-12-23T21:01:38.131Z,94501.53
2023-12-23T21:04:08.693Z,94503.38
2023-12-23T21:06:37.352Z,94513.41
2023-12-23T21:09:08.999Z,94512.34
2023-12-23T21:11:37.625Z,94534.19
2023-12-23T21:14:06.204Z,94543.13
2023-12-23T21:16:34.718Z,94544.97
2023-12-23T21:19:04.926Z,94548.94
2023-12-23T21:21:33.449Z,94551.31
2023-12-23T21:24:05.098Z,94552.34
2023-12-23T21:26:33.717Z,94546.88
2023-12-23T21:29:02.294Z,94562.41
2023-12-23T21:31:30.808Z,94575.03
2023-12-23T21:33:59.467Z,94577.69
2023-12-23T21:36:33.054Z,94573.44
2023-12-23T21:39:01.627Z,94583.19
2023-12-23T21:41:30.206Z,94581.09
2023-12-23T21:43:58.909Z,94596.84
2023-12-23T21:46:29.036Z,94559.97
2023-12-23T21:48:59.059Z,94582.16
2023-12-23T21:51:29.233Z,94582.16
2023-12-23T21:53:57.819Z,94596.38
2023-12-23T21:56:26.391Z,94592.69
2023-12-23T21:58:55.114Z,94590.34
2023-12-23T22:01:23.592Z,94587.94
2023-12-23T22:03:52.210Z,94597.97
2023-12-23T22:06:21.589Z,94598.47
2023-12-23T22:08:52.158Z,94594.78
2023-12-23T22:11:19.687Z,94607.44
2023-12-23T22:13:48.219Z,94605.84
2023-12-23T22:16:16.982Z,94604.03
2023-12-23T22:18:46.010Z,94604.28
2023-12-23T22:21:14.550Z,94612.97
2023-12-23T22:23:43.281Z,94600.88
2023-12-23T22:26:14.497Z,94600.88
2023-12-23T22:28:43.894Z,94602.69
2023-12-23T22:31:12.486Z,94600.31
2023-12-23T22:33:41.184Z,94573.22
2023-12-23T22:36:11.792Z,94610.84
2023-12-23T22:38:40.904Z,94622.97
2023-12-23T22:41:11.749Z,94632.72
2023-12-23T22:43:41.754Z,94627.22
2023-12-23T22:46:10.304Z,94618.50
2023-12-23T22:48:39.027Z,94599.78
2023-12-23T22:51:08.488Z,94605.59
2023-12-23T22:53:37.196Z,94621.38
2023-12-23T22:56:06.340Z,94623.78
2023-12-23T22:58:35.443Z,94616.41
2023-12-23T23:01:05.841Z,94614.56
2023-12-23T23:03:34.489Z,94617.19
2023-12-23T23:06:03.106Z,94614.56
2023-12-23T23:08:31.814Z,94601.91
2023-12-23T23:11:00.456Z,94605.56
2023-12-23T23:13:29.074Z,94606.13
2023-12-23T23:15:58.684Z,94614.28
2023-12-23T23:18:28.788Z,94606.38
2023-12-23T23:20:57.401Z,94619.81
2023-12-23T23:23:26.133Z,94617.19
2023-12-23T23:25:54.747Z,94562.66
2023-12-23T23:28:23.371Z,94591.63
2023-12-23T23:30:51.897Z,94632.47
2023-12-23T23:33:20.856Z,94619.00
2023-12-23T23:35:51.384Z,94637.16
2023-12-23T23:38:19.975Z,94622.66
2023-12-23T23:40:51.770Z,94622.00
2023-12-23T23:43:21.037Z,94632.91
2023-12-23T23:45:49.609Z,94623.91
2023-12-23T23:48:18.144Z,94625.53
2023-12-23T23:50:46.682Z,94567.28
2023-12-23T23:53:16.741Z,94636.28
2023-12-23T23:55:45.553Z,94627.63
2023-12-23T23:58:14.165Z,94656.09
